Terminal Aerodrome Forecast
Issued by NWS

Current Version | Previous Version | Graphics & Text | Print | Product List | Glossary On
Versions: 1 2 3 4 5 6 7 8 9 10 11 12 13 14 15 16 17 18 19 20 21 22 23
474
FTUS41 KILN 230538
TAFLCK
TAF
KLCK 230538Z 2306/2406 20012KT P6SM VCSH OVC020
      TEMPO 2306/2310 BKN008 OVC015
     FM231200 22014G20KT 5SM SHRA BR OVC015
      TEMPO 2314/2318 3SM +SHRA OVC010
     FM232200 23014KT P6SM VCSH BKN025 OVC100
      TEMPO 2322/2402 3SM -SHRA OVC015=

USA.gov is the U.S. government's official web portal to all federal, state and local government web resources and services.